Time;durP1;ratioP1;P1;durP2;ratioP2;P2;SDS_P1;SDS_P2;PMS_P1;PMS_P2;Temp;Humidity;BMP_temperature;BMP_pressure;BME280_temperature;BME280_humidity;BME280_pressure;Samples;Min_cycle;Max_cycle;Signal;HPM_P1;HPM_P2
2023/05/03 00:00:16;;;;;;;5.93;2.70;;;;;;;;;;5052642;28;20500;-79
2023/05/03 00:02:43;;;;;;;10.95;3.72;;;;;;;;;;5050139;28;20044;-80
2023/05/03 00:05:11;;;;;;;9.40;3.30;;;;;;;;;;5046785;28;20117;-79
2023/05/03 00:07:38;;;;;;;10.35;3.30;;;;;;;;;;5050414;28;20048;-79
2023/05/03 00:10:06;;;;;;;7.78;3.20;;;;;;;;;;5030372;28;20492;-79
2023/05/03 00:12:31;;;;;;;8.43;3.20;;;;;;;;;;5034153;28;20068;-80
2023/05/03 00:14:57;;;;;;;10.90;3.25;;;;;;;;;;5053909;28;20064;-79
2023/05/03 00:17:23;;;;;;;8.68;3.30;;;;;;;;;;5047557;28;20098;-78
2023/05/03 00:19:50;;;;;;;7.28;3.78;;;;;;;;;;5047335;28;20048;-79
2023/05/03 00:22:15;;;;;;;10.85;3.50;;;;;;;;;;5041711;28;20046;-79
2023/05/03 00:24:41;;;;;;;6.47;3.10;;;;;;;;;;5033007;28;20048;-79
2023/05/03 00:27:07;;;;;;;9.90;3.33;;;;;;;;;;5024746;28;20143;-79
2023/05/03 00:29:33;;;;;;;6.32;3.28;;;;;;;;;;5048157;28;20064;-79
2023/05/03 00:32:01;;;;;;;5.43;3.35;;;;;;;;;;5041917;28;20068;-79
2023/05/03 00:34:27;;;;;;;8.55;3.45;;;;;;;;;;5049235;28;20048;-80
2023/05/03 00:36:52;;;;;;;10.82;4.25;;;;;;;;;;5042522;28;20476;-79
2023/05/03 00:39:18;;;;;;;8.65;3.45;;;;;;;;;;5046889;28;20052;-79
2023/05/03 00:41:44;;;;;;;8.15;3.67;;;;;;;;;;5045730;28;20474;-79
2023/05/03 00:44:10;;;;;;;7.03;3.40;;;;;;;;;;5041713;28;20278;-78
2023/05/03 00:46:37;;;;;;;8.30;3.60;;;;;;;;;;5043924;28;20048;-78
2023/05/03 00:49:03;;;;;;;6.90;3.65;;;;;;;;;;5048359;28;20059;-79
2023/05/03 00:51:29;;;;;;;11.38;4.03;;;;;;;;;;5044905;28;20798;-79
2023/05/03 00:53:55;;;;;;;8.38;3.78;;;;;;;;;;5041995;28;20040;-79
2023/05/03 00:56:22;;;;;;;10.65;4.10;;;;;;;;;;5045582;28;20099;-79
2023/05/03 00:58:48;;;;;;;8.35;4.00;;;;;;;;;;5046029;28;20123;-79
2023/05/03 01:01:14;;;;;;;6.72;3.72;;;;;;;;;;5044348;28;20045;-79
2023/05/03 01:03:41;;;;;;;8.30;4.00;;;;;;;;;;5048397;28;20048;-79
2023/05/03 01:06:15;;;;;;;6.40;4.28;;;;;;;;;;5046937;28;20040;-79
2023/05/03 01:08:48;;;;;;;8.13;4.07;;;;;;;;;;5047660;28;20489;-79
2023/05/03 01:11:22;;;;;;;6.20;4.15;;;;;;;;;;5038689;28;20036;-79
2023/05/03 01:13:48;;;;;;;7.82;4.35;;;;;;;;;;5044510;28;20087;-80
2023/05/03 01:16:30;;;;;;;9.75;4.20;;;;;;;;;;5048118;28;20492;-79
2023/05/03 01:19:00;;;;;;;7.45;4.00;;;;;;;;;;5050817;28;20633;-79
2023/05/03 01:21:28;;;;;;;7.72;4.47;;;;;;;;;;5044676;28;20040;-79
2023/05/03 01:23:56;;;;;;;9.05;4.20;;;;;;;;;;5049243;28;20052;-79
2023/05/03 01:26:22;;;;;;;;;;;;;;;;;;5047679;28;20084;-80
2023/05/03 01:28:48;;;;;;;10.52;4.75;;;;;;;;;;5032245;28;20681;-78
2023/05/03 01:31:17;;;;;;;8.63;4.10;;;;;;;;;;5053554;28;20051;-79
2023/05/03 01:33:46;;;;;;;9.30;4.35;;;;;;;;;;5050540;28;20054;-79
2023/05/03 01:36:15;;;;;;;11.07;4.10;;;;;;;;;;5036670;28;20048;-79
2023/05/03 01:38:42;;;;;;;10.18;4.30;;;;;;;;;;5049455;28;21017;-79
2023/05/03 01:41:12;;;;;;;10.65;4.57;;;;;;;;;;5047147;28;20496;-79
2023/05/03 01:43:39;;;;;;;7.20;4.00;;;;;;;;;;5049926;28;20040;-81
2023/05/03 01:46:07;;;;;;;5.32;4.00;;;;;;;;;;5052237;28;20045;-79
2023/05/03 01:48:33;;;;;;;8.65;4.55;;;;;;;;;;5047059;28;20048;-78
2023/05/03 01:50:59;;;;;;;9.50;3.97;;;;;;;;;;5048805;28;20486;-78
2023/05/03 01:53:25;;;;;;;11.00;4.32;;;;;;;;;;5044564;28;20094;-79
2023/05/03 01:55:51;;;;;;;5.80;3.75;;;;;;;;;;5027736;28;20043;-79
2023/05/03 01:58:17;;;;;;;5.85;4.00;;;;;;;;;;5046639;28;20036;-79
2023/05/03 02:00:45;;;;;;;8.68;4.45;;;;;;;;;;5042427;28;20054;-79
2023/05/03 02:03:11;;;;;;;6.60;4.13;;;;;;;;;;5046273;28;20441;-79
2023/05/03 02:05:40;;;;;;;6.85;4.15;;;;;;;;;;5047435;28;20115;-79
2023/05/03 02:08:06;;;;;;;8.93;4.10;;;;;;;;;;5044878;28;20644;-80
2023/05/03 02:10:32;;;;;;;7.60;4.00;;;;;;;;;;5047306;28;20041;-80
2023/05/03 02:12:58;;;;;;;8.63;4.22;;;;;;;;;;5048347;28;20076;-79
2023/05/03 02:15:24;;;;;;;8.30;4.05;;;;;;;;;;5045631;28;20053;-80
2023/05/03 02:17:50;;;;;;;8.10;4.80;;;;;;;;;;5043963;28;20049;-80
2023/05/03 02:20:16;;;;;;;7.20;4.15;;;;;;;;;;5046346;28;20215;-78
2023/05/03 02:22:42;;;;;;;10.30;5.50;;;;;;;;;;5046719;28;20132;-79
2023/05/03 02:25:08;;;;;;;6.13;3.95;;;;;;;;;;5048508;28;20120;-78
2023/05/03 02:27:34;;;;;;;7.30;5.18;;;;;;;;;;5040454;28;20525;-78
2023/05/03 02:30:00;;;;;;;8.70;5.03;;;;;;;;;;5048071;28;20131;-80
2023/05/03 02:32:26;;;;;;;8.40;5.38;;;;;;;;;;5042921;28;20154;-78
2023/05/03 02:34:53;;;;;;;9.13;4.95;;;;;;;;;;5047619;28;20084;-79
2023/05/03 02:37:20;;;;;;;9.15;5.50;;;;;;;;;;5046229;28;20053;-79
2023/05/03 02:39:46;;;;;;;10.27;4.90;;;;;;;;;;5038773;28;21327;-80
2023/05/03 02:42:12;;;;;;;9.20;5.35;;;;;;;;;;5040307;28;20059;-79
2023/05/03 02:44:38;;;;;;;8.73;4.90;;;;;;;;;;5044221;28;20056;-79
2023/05/03 02:47:04;;;;;;;6.30;4.75;;;;;;;;;;5041957;28;20053;-79
2023/05/03 02:49:30;;;;;;;10.73;5.05;;;;;;;;;;5037589;28;20072;-80
2023/05/03 02:51:56;;;;;;;8.32;4.85;;;;;;;;;;5034470;28;20140;-79
2023/05/03 02:54:23;;;;;;;6.68;4.60;;;;;;;;;;5049454;28;20509;-79
2023/05/03 02:56:49;;;;;;;8.50;5.03;;;;;;;;;;5035281;28;20051;-79
2023/05/03 02:59:15;;;;;;;7.65;5.10;;;;;;;;;;5044551;28;20048;-79
2023/05/03 03:01:41;;;;;;;10.88;5.00;;;;;;;;;;5051098;28;20071;-79
2023/05/03 03:04:07;;;;;;;12.13;5.10;;;;;;;;;;5040694;28;20122;-80
2023/05/03 03:06:33;;;;;;;8.90;4.90;;;;;;;;;;5036318;28;20261;-79
2023/05/03 03:08:59;;;;;;;8.85;4.90;;;;;;;;;;5040327;28;20514;-79
2023/05/03 03:11:25;;;;;;;7.45;4.90;;;;;;;;;;5045275;28;20411;-80
2023/05/03 03:13:51;;;;;;;10.35;4.68;;;;;;;;;;5041047;28;20035;-80
2023/05/03 03:16:17;;;;;;;8.25;4.63;;;;;;;;;;5035938;28;20151;-79
2023/05/03 03:18:43;;;;;;;7.45;4.60;;;;;;;;;;5042460;28;20181;-80
2023/05/03 03:21:09;;;;;;;8.57;4.63;;;;;;;;;;5021997;28;20045;-79
2023/05/03 03:23:35;;;;;;;5.18;4.68;;;;;;;;;;5043734;28;20041;-79
2023/05/03 03:26:01;;;;;;;6.00;4.78;;;;;;;;;;5049171;28;21151;-80
2023/05/03 03:28:27;;;;;;;8.27;4.30;;;;;;;;;;5043533;28;20044;-80
2023/05/03 03:30:53;;;;;;;8.38;4.32;;;;;;;;;;5027833;28;20564;-79
2023/05/03 03:33:20;;;;;;;8.23;4.60;;;;;;;;;;5043684;28;20918;-79
2023/05/03 03:35:46;;;;;;;6.80;4.28;;;;;;;;;;5048941;28;20049;-80
2023/05/03 03:38:12;;;;;;;7.22;4.45;;;;;;;;;;5030985;28;20053;-79
2023/05/03 03:40:38;;;;;;;5.30;4.15;;;;;;;;;;5050042;28;20053;-79
2023/05/03 03:43:04;;;;;;;7.95;4.78;;;;;;;;;;5040922;28;20055;-79
2023/05/03 03:45:30;;;;;;;7.25;3.85;;;;;;;;;;5046378;28;20139;-79
2023/05/03 03:47:56;;;;;;;8.25;4.35;;;;;;;;;;5033383;28;20032;-79
2023/05/03 03:50:23;;;;;;;7.97;3.55;;;;;;;;;;5029964;28;21079;-79
2023/05/03 03:52:49;;;;;;;9.05;3.88;;;;;;;;;;5033263;28;20040;-82
2023/05/03 03:55:15;;;;;;;7.70;4.47;;;;;;;;;;5055058;28;20101;-79
2023/05/03 03:57:41;;;;;;;8.73;4.60;;;;;;;;;;5049286;28;20068;-80
2023/05/03 04:00:09;;;;;;;9.88;4.53;;;;;;;;;;5045834;28;20226;-78
2023/05/03 04:02:35;;;;;;;5.88;4.05;;;;;;;;;;5037268;28;20040;-79
2023/05/03 04:05:01;;;;;;;6.22;4.00;;;;;;;;;;5050207;28;20040;-80
2023/05/03 04:07:27;;;;;;;6.65;4.07;;;;;;;;;;5048513;28;20043;-79
2023/05/03 04:09:53;;;;;;;8.90;4.10;;;;;;;;;;5044981;28;20040;-79
2023/05/03 04:12:19;;;;;;;6.07;3.65;;;;;;;;;;5049886;28;20040;-79
2023/05/03 04:14:45;;;;;;;11.10;4.50;;;;;;;;;;5053296;28;20123;-80
2023/05/03 04:17:11;;;;;;;8.77;4.05;;;;;;;;;;5053083;28;20049;-79
2023/05/03 04:19:37;;;;;;;9.77;4.07;;;;;;;;;;5048229;28;20530;-79
2023/05/03 04:22:04;;;;;;;8.52;4.07;;;;;;;;;;5070459;28;20075;-79
2023/05/03 04:24:30;;;;;;;7.70;4.95;;;;;;;;;;5035925;28;20066;-79
2023/05/03 04:26:57;;;;;;;4.68;3.80;;;;;;;;;;5049681;28;20116;-79
2023/05/03 04:29:23;;;;;;;7.03;4.15;;;;;;;;;;5045422;28;20052;-79
2023/05/03 04:31:50;;;;;;;9.57;4.55;;;;;;;;;;5049700;28;20039;-79
2023/05/03 04:34:16;;;;;;;9.15;4.50;;;;;;;;;;5046657;28;20036;-79
2023/05/03 04:36:44;;;;;;;8.45;3.97;;;;;;;;;;5068958;28;21067;-80
2023/05/03 04:39:10;;;;;;;6.38;3.60;;;;;;;;;;5064934;28;20048;-79
2023/05/03 04:41:36;;;;;;;11.18;3.72;;;;;;;;;;5044399;28;20062;-80
2023/05/03 04:44:04;;;;;;;10.73;3.80;;;;;;;;;;5068025;28;20048;-79
2023/05/03 04:46:30;;;;;;;6.85;3.88;;;;;;;;;;5070813;28;20144;-79
2023/05/03 04:48:56;;;;;;;9.57;3.90;;;;;;;;;;5044650;28;20502;-79
2023/05/03 04:51:22;;;;;;;7.43;3.88;;;;;;;;;;5045923;28;20517;-80
2023/05/03 04:53:48;;;;;;;9.43;3.30;;;;;;;;;;5068753;28;20135;-80
2023/05/03 04:56:14;;;;;;;10.95;3.75;;;;;;;;;;5028555;28;20047;-80
2023/05/03 04:58:41;;;;;;;7.28;3.88;;;;;;;;;;5068035;28;20052;-80
2023/05/03 05:01:07;;;;;;;7.65;4.13;;;;;;;;;;5046177;28;20779;-79
2023/05/03 05:03:33;;;;;;;9.82;4.25;;;;;;;;;;5070147;28;20135;-79
2023/05/03 05:05:59;;;;;;;6.53;4.25;;;;;;;;;;5065952;28;20044;-79
2023/05/03 05:08:25;;;;;;;6.93;3.65;;;;;;;;;;5065571;28;20047;-79
2023/05/03 05:10:51;;;;;;;8.18;3.72;;;;;;;;;;5064666;28;20029;-79
2023/05/03 05:13:17;;;;;;;6.15;3.97;;;;;;;;;;5067769;28;20044;-79
2023/05/03 05:15:43;;;;;;;10.80;3.88;;;;;;;;;;5050189;28;20047;-79
2023/05/03 05:18:09;;;;;;;6.65;4.03;;;;;;;;;;5062570;28;20047;-79
2023/05/03 05:20:35;;;;;;;5.22;3.63;;;;;;;;;;5056753;28;20052;-79
2023/05/03 05:23:01;;;;;;;14.02;4.38;;;;;;;;;;5049180;28;20048;-79
2023/05/03 05:25:27;;;;;;;5.38;3.50;;;;;;;;;;5034430;28;20028;-79
2023/05/03 05:27:53;;;;;;;4.38;3.47;;;;;;;;;;5047248;28;20077;-79
2023/05/03 05:30:19;;;;;;;7.22;3.55;;;;;;;;;;5045329;28;20106;-80
2023/05/03 05:32:45;;;;;;;7.97;3.80;;;;;;;;;;5048915;28;20499;-80
2023/05/03 05:35:11;;;;;;;5.25;3.20;;;;;;;;;;5048566;28;20049;-79
2023/05/03 05:37:37;;;;;;;6.82;2.90;;;;;;;;;;5052232;28;20044;-79
2023/05/03 05:40:04;;;;;;;11.35;4.15;;;;;;;;;;5049380;28;20193;-80
2023/05/03 05:42:30;;;;;;;7.80;3.75;;;;;;;;;;5048745;28;20068;-80
2023/05/03 05:44:56;;;;;;;7.20;2.92;;;;;;;;;;5052368;28;20469;-80
2023/05/03 05:47:22;;;;;;;5.95;2.90;;;;;;;;;;5046275;28;20053;-79
2023/05/03 05:49:48;;;;;;;9.63;2.58;;;;;;;;;;5047814;28;20047;-78
2023/05/03 05:52:15;;;;;;;4.38;2.50;;;;;;;;;;5029859;28;20095;-79
2023/05/03 05:54:41;;;;;;;4.35;2.47;;;;;;;;;;5037147;28;20044;-80
2023/05/03 05:57:07;;;;;;;5.90;2.90;;;;;;;;;;5048324;28;20502;-79
2023/05/03 05:59:33;;;;;;;7.28;2.40;;;;;;;;;;5047274;28;20052;-79
2023/05/03 06:01:59;;;;;;;4.75;2.20;;;;;;;;;;5041429;28;20048;-80
2023/05/03 06:04:26;;;;;;;4.97;2.17;;;;;;;;;;5049441;28;20109;-79
2023/05/03 06:06:52;;;;;;;9.32;2.67;;;;;;;;;;5025476;28;20140;-79
2023/05/03 06:09:18;;;;;;;5.55;2.40;;;;;;;;;;5048676;28;20044;-79
2023/05/03 06:11:44;;;;;;;5.85;2.50;;;;;;;;;;5045601;28;20489;-79
2023/05/03 06:14:11;;;;;;;6.15;2.50;;;;;;;;;;5048466;28;20028;-79
2023/05/03 06:16:37;;;;;;;8.25;2.50;;;;;;;;;;5045246;28;20055;-80
2023/05/03 06:19:03;;;;;;;3.72;1.92;;;;;;;;;;5032753;28;20032;-80
2023/05/03 06:21:30;;;;;;;4.90;2.28;;;;;;;;;;5026704;28;20040;-79
2023/05/03 06:23:56;;;;;;;6.90;2.40;;;;;;;;;;5026970;28;20048;-79
2023/05/03 06:26:22;;;;;;;8.30;2.40;;;;;;;;;;5028106;28;20166;-79
2023/05/03 06:28:49;;;;;;;4.82;2.25;;;;;;;;;;5049228;28;20036;-79
2023/05/03 06:31:15;;;;;;;4.95;1.98;;;;;;;;;;5050177;28;20055;-79
2023/05/03 06:33:41;;;;;;;12.02;2.42;;;;;;;;;;5045716;28;20063;-79
2023/05/03 06:36:08;;;;;;;5.10;2.10;;;;;;;;;;5047280;28;20041;-79
2023/05/03 06:38:34;;;;;;;5.85;2.20;;;;;;;;;;5051482;28;20053;-79
2023/05/03 06:41:00;;;;;;;4.13;1.98;;;;;;;;;;5046651;28;20142;-79
2023/05/03 06:43:26;;;;;;;5.57;2.17;;;;;;;;;;5044343;28;20527;-78
2023/05/03 06:45:52;;;;;;;6.82;2.25;;;;;;;;;;5046384;28;20122;-79
2023/05/03 06:48:18;;;;;;;4.45;2.17;;;;;;;;;;5047047;28;20411;-78
2023/05/03 06:50:44;;;;;;;6.50;1.80;;;;;;;;;;5047494;28;20048;-78
2023/05/03 06:53:10;;;;;;;2.55;1.85;;;;;;;;;;5054293;28;20050;-78
2023/05/03 06:55:36;;;;;;;6.00;2.08;;;;;;;;;;5034088;28;20419;-78
2023/05/03 06:58:03;;;;;;;6.30;2.00;;;;;;;;;;5043015;28;20048;-79
2023/05/03 07:00:29;;;;;;;7.75;2.33;;;;;;;;;;5046515;28;20072;-78
2023/05/03 07:02:55;;;;;;;6.97;1.98;;;;;;;;;;5032120;28;20048;-78
2023/05/03 07:05:21;;;;;;;6.70;1.80;;;;;;;;;;5045190;28;20176;-79
2023/05/03 07:07:47;;;;;;;6.57;2.17;;;;;;;;;;5045466;28;20653;-78
2023/05/03 07:10:13;;;;;;;7.55;2.00;;;;;;;;;;5054287;28;20111;-79
2023/05/03 07:12:40;;;;;;;3.70;1.60;;;;;;;;;;5036753;28;20044;-79
2023/05/03 07:15:06;;;;;;;5.95;1.73;;;;;;;;;;5051036;28;20089;-78
2023/05/03 07:17:32;;;;;;;3.78;1.60;;;;;;;;;;5046651;28;20230;-78
2023/05/03 07:19:58;;;;;;;7.35;1.80;;;;;;;;;;5055197;28;20044;-78
2023/05/03 07:22:24;;;;;;;6.03;2.20;;;;;;;;;;5062125;28;20041;-79
2023/05/03 07:24:53;;;;;;;4.35;1.92;;;;;;;;;;5048839;28;20044;-78
2023/05/03 07:27:19;;;;;;;5.10;1.90;;;;;;;;;;5045652;28;20060;-77
2023/05/03 07:29:45;;;;;;;4.05;2.05;;;;;;;;;;5045490;28;20064;-78
2023/05/03 07:32:11;;;;;;;5.72;2.33;;;;;;;;;;5047279;28;20488;-79
2023/05/03 07:34:37;;;;;;;6.50;2.47;;;;;;;;;;5050248;28;20055;-80
2023/05/03 07:37:03;;;;;;;5.68;2.20;;;;;;;;;;5052907;28;20044;-79
2023/05/03 07:39:29;;;;;;;5.72;1.80;;;;;;;;;;5049385;28;20105;-78
2023/05/03 07:41:55;;;;;;;8.23;2.00;;;;;;;;;;5050268;28;20056;-78
2023/05/03 07:44:21;;;;;;;5.30;2.08;;;;;;;;;;5056904;28;20138;-77
2023/05/03 07:46:47;;;;;;;3.05;1.90;;;;;;;;;;5051319;28;20044;-78
2023/05/03 07:49:13;;;;;;;5.13;2.08;;;;;;;;;;5054439;28;20037;-78
2023/05/03 07:51:40;;;;;;;5.38;2.10;;;;;;;;;;5060544;28;20044;-78
2023/05/03 07:54:06;;;;;;;5.15;1.65;;;;;;;;;;5058673;28;20044;-78
2023/05/03 07:56:33;;;;;;;5.40;1.80;;;;;;;;;;5038538;28;20044;-78
2023/05/03 07:58:59;;;;;;;6.32;2.17;;;;;;;;;;5048119;28;20040;-77
2023/05/03 08:01:25;;;;;;;3.47;1.80;;;;;;;;;;5055695;28;20103;-77
2023/05/03 08:03:53;;;;;;;4.10;2.00;;;;;;;;;;5056704;28;20059;-77
2023/05/03 08:06:19;;;;;;;10.98;2.50;;;;;;;;;;5042772;28;20415;-78
2023/05/03 08:08:45;;;;;;;6.05;2.42;;;;;;;;;;5051777;28;20185;-77
2023/05/03 08:11:11;;;;;;;4.57;1.83;;;;;;;;;;5046533;28;20056;-77
2023/05/03 08:13:37;;;;;;;5.15;2.13;;;;;;;;;;5031345;28;20144;-77
2023/05/03 08:16:05;;;;;;;3.67;1.90;;;;;;;;;;5050082;28;20071;-78
2023/05/03 08:18:31;;;;;;;7.95;2.08;;;;;;;;;;5051814;28;20048;-76
2023/05/03 08:20:57;;;;;;;7.82;2.38;;;;;;;;;;5051795;28;20045;-78
2023/05/03 08:23:24;;;;;;;7.45;2.40;;;;;;;;;;5049159;28;20131;-78
2023/05/03 08:25:50;;;;;;;6.72;2.20;;;;;;;;;;5057130;28;20516;-77
2023/05/03 08:28:16;;;;;;;5.63;2.00;;;;;;;;;;5050448;28;20101;-76
2023/05/03 08:30:42;;;;;;;4.93;1.90;;;;;;;;;;5047900;28;20080;-78
2023/05/03 08:33:11;;;;;;;7.07;1.80;;;;;;;;;;5047560;28;20385;-77
2023/05/03 08:35:37;;;;;;;3.72;2.10;;;;;;;;;;5062027;28;20126;-77
2023/05/03 08:38:04;;;;;;;7.40;2.03;;;;;;;;;;5049417;28;20051;-77
2023/05/03 08:40:35;;;;;;;4.70;2.00;;;;;;;;;;5049389;28;20056;-78
2023/05/03 08:43:06;;;;;;;6.13;2.45;;;;;;;;;;5034480;28;20102;-77
2023/05/03 08:45:32;;;;;;;6.70;2.10;;;;;;;;;;5048768;28;20044;-77
2023/05/03 08:48:01;;;;;;;6.82;2.03;;;;;;;;;;5057011;28;20048;-77
2023/05/03 08:50:27;;;;;;;7.72;1.95;;;;;;;;;;5054499;28;20091;-77
2023/05/03 08:52:53;;;;;;;6.35;2.20;;;;;;;;;;5055667;28;20038;-77
2023/05/03 08:55:19;;;;;;;5.38;1.83;;;;;;;;;;5051385;28;20403;-78
2023/05/03 08:57:45;;;;;;;5.18;2.03;;;;;;;;;;5055329;28;20055;-78
2023/05/03 09:00:11;;;;;;;4.18;1.90;;;;;;;;;;5069258;28;20058;-78
2023/05/03 09:02:38;;;;;;;4.95;2.00;;;;;;;;;;5050615;28;20044;-77
2023/05/03 09:05:14;;;;;;;5.10;2.00;;;;;;;;;;5050240;28;20129;-77
2023/05/03 09:07:40;;;;;;;6.55;2.30;;;;;;;;;;5035206;28;20040;-80
2023/05/03 09:10:22;;;;;;;5.22;1.80;;;;;;;;;;5069029;28;20388;-76
2023/05/03 09:12:48;;;;;;;5.60;1.85;;;;;;;;;;5048270;28;20198;-77
2023/05/03 09:15:21;;;;;;;7.30;2.00;;;;;;;;;;5050803;28;20851;-76
2023/05/03 09:18:05;;;;;;;4.25;2.10;;;;;;;;;;5078204;28;20674;-76
2023/05/03 09:20:35;;;;;;;5.88;2.22;;;;;;;;;;5067320;28;20139;-77
2023/05/03 09:23:02;;;;;;;5.20;2.05;;;;;;;;;;5051224;28;20059;-77
2023/05/03 09:25:41;;;;;;;4.43;2.10;;;;;;;;;;5050371;28;20063;-77
2023/05/03 09:28:09;;;;;;;5.03;1.88;;;;;;;;;;5050915;28;20684;-76
2023/05/03 09:30:35;;;;;;;5.25;1.83;;;;;;;;;;5048790;28;20106;-76
2023/05/03 09:33:01;;;;;;;7.60;2.20;;;;;;;;;;5063915;28;20040;-77
2023/05/03 09:35:27;;;;;;;8.85;2.10;;;;;;;;;;5047825;28;20041;-77
2023/05/03 09:37:53;;;;;;;6.40;2.20;;;;;;;;;;5050318;28;20051;-77
2023/05/03 09:40:19;;;;;;;5.45;1.85;;;;;;;;;;5052455;28;20062;-76
2023/05/03 09:43:09;;;;;;;4.97;2.00;;;;;;;;;;5070546;28;20128;-77
2023/05/03 09:45:35;;;;;;;10.85;2.30;;;;;;;;;;5047032;28;20506;-77
2023/05/03 09:48:03;;;;;;;5.43;2.00;;;;;;;;;;5032051;28;20044;-77
2023/05/03 09:50:31;;;;;;;5.80;2.10;;;;;;;;;;5033599;28;20136;-78
2023/05/03 09:52:59;;;;;;;3.97;1.98;;;;;;;;;;5045946;28;20082;-77
2023/05/03 09:55:26;;;;;;;3.88;1.98;;;;;;;;;;5062919;28;20055;-77
2023/05/03 09:57:54;;;;;;;6.90;2.03;;;;;;;;;;5050511;28;20052;-78
2023/05/03 10:00:20;;;;;;;5.15;1.80;;;;;;;;;;5055012;28;20052;-77
2023/05/03 10:02:48;;;;;;;5.65;1.90;;;;;;;;;;5052365;28;20048;-77
2023/05/03 10:05:16;;;;;;;5.03;2.05;;;;;;;;;;5057779;28;20079;-77
2023/05/03 10:07:43;;;;;;;4.30;1.60;;;;;;;;;;5058933;28;20093;-77
2023/05/03 10:10:09;;;;;;;6.38;1.83;;;;;;;;;;5057579;28;20761;-77
2023/05/03 10:12:35;;;;;;;5.65;2.08;;;;;;;;;;5062682;28;20075;-77
2023/05/03 10:15:05;;;;;;;8.95;2.10;;;;;;;;;;5053210;28;20621;-77
2023/05/03 10:17:34;;;;;;;6.38;1.90;;;;;;;;;;5052873;28;20106;-77
2023/05/03 10:20:06;;;;;;;4.57;1.80;;;;;;;;;;5035298;28;20169;-77
2023/05/03 10:22:32;;;;;;;6.30;1.63;;;;;;;;;;5053431;28;20059;-77
2023/05/03 10:25:01;;;;;;;6.65;2.17;;;;;;;;;;5052932;28;20085;-77
2023/05/03 10:27:45;;;;;;;5.85;2.25;;;;;;;;;;5032314;28;20518;-77
2023/05/03 10:30:31;;;;;;;4.30;1.70;;;;;;;;;;5041943;28;20048;-77
2023/05/03 10:32:58;;;;;;;7.60;2.22;;;;;;;;;;5036357;28;20062;-77
2023/05/03 10:35:27;;;;;;;5.32;1.85;;;;;;;;;;5031335;28;20058;-77
2023/05/03 10:37:55;;;;;;;5.72;2.00;;;;;;;;;;5048578;28;20367;-77
2023/05/03 10:40:22;;;;;;;6.03;2.00;;;;;;;;;;5072167;28;20052;-77
2023/05/03 10:42:53;;;;;;;7.50;2.17;;;;;;;;;;5044231;28;20039;-78
2023/05/03 10:45:21;;;;;;;4.57;2.30;;;;;;;;;;5048028;28;20155;-77
2023/05/03 10:48:06;;;;;;;3.33;1.77;;;;;;;;;;5047482;28;20063;-78
2023/05/03 10:50:32;;;;;;;7.57;1.90;;;;;;;;;;5047985;28;20486;-78
2023/05/03 10:52:58;;;;;;;5.07;1.95;;;;;;;;;;5054192;28;20175;-76
2023/05/03 10:55:24;;;;;;;4.03;1.65;;;;;;;;;;5048624;28;20140;-78
2023/05/03 10:57:52;;;;;;;5.15;1.60;;;;;;;;;;5048470;28;20801;-78
2023/05/03 11:00:24;;;;;;;3.58;1.83;;;;;;;;;;5041486;28;20073;-77
2023/05/03 11:03:00;;;;;;;5.53;1.90;;;;;;;;;;5048362;28;20063;-78
2023/05/03 11:05:27;;;;;;;6.82;1.95;;;;;;;;;;5043192;28;20047;-77
2023/05/03 11:08:07;;;;;;;5.13;2.20;;;;;;;;;;5033068;28;20052;-77
2023/05/03 11:10:33;;;;;;;5.50;1.95;;;;;;;;;;5044302;28;20044;-78
2023/05/03 11:12:59;;;;;;;6.05;1.92;;;;;;;;;;5044308;28;20110;-77
2023/05/03 11:15:25;;;;;;;6.50;1.90;;;;;;;;;;5047860;28;20049;-78
2023/05/03 11:17:51;;;;;;;4.80;2.03;;;;;;;;;;5047097;28;20051;-78
2023/05/03 11:20:18;;;;;;;6.03;2.00;;;;;;;;;;5046180;28;20139;-77
2023/05/03 11:22:45;;;;;;;4.68;1.90;;;;;;;;;;5045851;28;20187;-78
2023/05/03 11:25:11;;;;;;;4.78;2.10;;;;;;;;;;5065631;28;20100;-76
2023/05/03 11:27:37;;;;;;;6.10;2.20;;;;;;;;;;5065958;28;20895;-76
2023/05/03 11:30:05;;;;;;;4.50;2.17;;;;;;;;;;5043881;28;20182;-75
2023/05/03 11:32:32;;;;;;;6.07;2.08;;;;;;;;;;5052207;28;20381;-76
2023/05/03 11:35:02;;;;;;;3.92;2.00;;;;;;;;;;5068233;28;20726;-77
2023/05/03 11:37:30;;;;;;;2.65;1.83;;;;;;;;;;5063014;28;20561;-77
2023/05/03 11:39:56;;;;;;;9.45;1.70;;;;;;;;;;5059496;28;20097;-77
2023/05/03 11:42:25;;;;;;;6.13;1.90;;;;;;;;;;5049941;28;20044;-77
2023/05/03 11:44:55;;;;;;;4.72;1.73;;;;;;;;;;5045822;28;20060;-78
2023/05/03 11:47:21;;;;;;;4.82;1.67;;;;;;;;;;5045703;28;20667;-77
2023/05/03 11:49:54;;;;;;;3.60;1.77;;;;;;;;;;5047282;28;20057;-77
2023/05/03 11:52:25;;;;;;;3.55;1.80;;;;;;;;;;5041962;28;20056;-77
2023/05/03 11:54:51;;;;;;;2.35;1.85;;;;;;;;;;5058331;28;20051;-77
2023/05/03 11:57:17;;;;;;;8.18;1.80;;;;;;;;;;5038381;28;20066;-77
2023/05/03 11:59:43;;;;;;;3.88;1.85;;;;;;;;;;5032046;28;20480;-77
2023/05/03 12:02:24;;;;;;;3.47;1.70;;;;;;;;;;5046118;28;20043;-78
2023/05/03 12:04:52;;;;;;;4.80;2.03;;;;;;;;;;5042940;28;20048;-79
2023/05/03 12:07:18;;;;;;;7.82;1.98;;;;;;;;;;5060611;28;20127;-78
2023/05/03 12:09:44;;;;;;;4.95;2.38;;;;;;;;;;5039373;28;20102;-77
2023/05/03 12:12:09;;;;;;;5.13;1.90;;;;;;;;;;5030059;28;20040;-78
2023/05/03 12:14:55;;;;;;;4.25;1.70;;;;;;;;;;5046071;28;20043;-78
2023/05/03 12:17:38;;;;;;;4.75;1.75;;;;;;;;;;5049982;28;20234;-79
2023/05/03 12:20:15;;;;;;;5.88;2.08;;;;;;;;;;5068922;28;20136;-78
2023/05/03 12:22:41;;;;;;;5.05;1.88;;;;;;;;;;5050904;28;20055;-79
2023/05/03 12:25:07;;;;;;;3.90;1.85;;;;;;;;;;5056090;28;20040;-79
2023/05/03 12:27:33;;;;;;;5.95;2.10;;;;;;;;;;5046978;28;20072;-79
2023/05/03 12:29:59;;;;;;;8.30;2.42;;;;;;;;;;5052547;28;20163;-79
2023/05/03 12:32:25;;;;;;;6.78;1.98;;;;;;;;;;5049892;28;20136;-77
2023/05/03 12:34:55;;;;;;;4.25;2.08;;;;;;;;;;5049379;28;20044;-79
2023/05/03 12:37:21;;;;;;;6.35;2.22;;;;;;;;;;5049560;28;20064;-77
2023/05/03 12:39:47;;;;;;;5.13;1.90;;;;;;;;;;5053580;28;20056;-79
2023/05/03 12:42:13;;;;;;;5.95;1.80;;;;;;;;;;5043767;28;20036;-78
2023/05/03 12:44:56;;;;;;;5.97;2.60;;;;;;;;;;5103001;27;20449;-78
2023/05/03 12:47:22;;;;;;;7.45;2.28;;;;;;;;;;5087723;28;20063;-78
2023/05/03 12:49:48;;;;;;;5.97;2.60;;;;;;;;;;5085393;28;20467;-77
2023/05/03 12:52:14;;;;;;;7.15;2.50;;;;;;;;;;5084215;28;20447;-78
2023/05/03 12:54:40;;;;;;;4.07;2.40;;;;;;;;;;5084705;28;20043;-77
2023/05/03 12:57:08;;;;;;;6.88;2.63;;;;;;;;;;5100342;28;20143;-79
2023/05/03 12:59:35;;;;;;;6.95;2.65;;;;;;;;;;5088633;28;20608;-78
2023/05/03 13:02:01;;;;;;;4.63;2.45;;;;;;;;;;5068982;28;20043;-78
2023/05/03 13:04:27;;;;;;;3.70;2.50;;;;;;;;;;5084733;28;20161;-79
2023/05/03 13:10:17;;;;;;;5.13;2.50;;;;;;;;;;5094882;28;20035;-79
2023/05/03 13:12:43;;;;;;;6.63;2.80;;;;;;;;;;5091003;28;20047;-76
2023/05/03 13:15:09;;;;;;;7.55;2.67;;;;;;;;;;5097030;28;20044;-78
2023/05/03 13:17:35;;;;;;;5.82;2.58;;;;;;;;;;5096191;28;20047;-78
2023/05/03 13:20:01;;;;;;;6.85;2.50;;;;;;;;;;5097029;28;20125;-76
2023/05/03 13:22:27;;;;;;;7.57;2.55;;;;;;;;;;5092527;28;20043;-76
2023/05/03 13:24:53;;;;;;;6.25;2.45;;;;;;;;;;5092103;28;20044;-77
2023/05/03 13:27:19;;;;;;;6.55;2.47;;;;;;;;;;5072352;28;20044;-78
2023/05/03 13:29:45;;;;;;;7.57;2.72;;;;;;;;;;5103689;28;20127;-78
2023/05/03 13:32:11;;;;;;;3.60;2.50;;;;;;;;;;5092069;28;20157;-79
2023/05/03 13:34:37;;;;;;;5.47;2.65;;;;;;;;;;5086694;28;20044;-78
2023/05/03 13:37:03;;;;;;;6.18;2.40;;;;;;;;;;5090918;28;20056;-78
2023/05/03 13:39:29;;;;;;;6.05;3.17;;;;;;;;;;5092341;28;20036;-78
2023/05/03 13:41:55;;;;;;;6.70;2.53;;;;;;;;;;5088620;28;20048;-77
2023/05/03 13:44:24;;;;;;;8.95;2.95;;;;;;;;;;5094267;28;20685;-78
2023/05/03 13:46:51;;;;;;;5.38;2.80;;;;;;;;;;5087679;28;20470;-77
2023/05/03 13:49:17;;;;;;;5.53;2.58;;;;;;;;;;5083489;28;20466;-78
2023/05/03 13:51:43;;;;;;;4.00;2.80;;;;;;;;;;5079915;28;20097;-79
2023/05/03 13:54:09;;;;;;;7.82;2.95;;;;;;;;;;5086043;28;20126;-78
2023/05/03 13:56:35;;;;;;;7.45;3.05;;;;;;;;;;5075656;28;20063;-76
2023/05/03 13:59:01;;;;;;;8.70;2.53;;;;;;;;;;5062919;28;20040;-77
2023/05/03 14:01:27;;;;;;;5.30;2.45;;;;;;;;;;5079311;28;20046;-76
2023/05/03 14:03:54;;;;;;;4.75;2.50;;;;;;;;;;5075585;28;20036;-76
2023/05/03 14:06:22;;;;;;;8.52;3.00;;;;;;;;;;5075423;28;20038;-77
2023/05/03 14:08:48;;;;;;;7.40;3.00;;;;;;;;;;5058404;28;20098;-77
2023/05/03 14:11:14;;;;;;;3.88;2.70;;;;;;;;;;5083962;28;20094;-77
2023/05/03 14:13:41;;;;;;;5.05;2.92;;;;;;;;;;5078051;28;20074;-77
2023/05/03 14:16:07;;;;;;;5.03;2.88;;;;;;;;;;5076890;28;20056;-77
2023/05/03 14:18:33;;;;;;;6.88;3.05;;;;;;;;;;5069460;28;20082;-77
2023/05/03 14:20:59;;;;;;;7.50;2.70;;;;;;;;;;5076970;28;20082;-76
2023/05/03 14:23:25;;;;;;;5.95;3.05;;;;;;;;;;5085072;28;20514;-76
2023/05/03 14:25:51;;;;;;;5.07;2.63;;;;;;;;;;5067797;28;20044;-77
2023/05/03 14:28:18;;;;;;;4.47;2.42;;;;;;;;;;5069408;28;20080;-79
2023/05/03 14:30:44;;;;;;;6.47;2.90;;;;;;;;;;5084255;27;20048;-79
2023/05/03 14:33:10;;;;;;;6.20;2.95;;;;;;;;;;5071117;28;20067;-79
2023/05/03 14:35:36;;;;;;;5.60;2.90;;;;;;;;;;5064304;28;20132;-79
2023/05/03 14:38:03;;;;;;;6.93;2.60;;;;;;;;;;5055199;28;20044;-78
2023/05/03 14:40:29;;;;;;;5.75;2.55;;;;;;;;;;5073445;28;20158;-77
2023/05/03 14:42:55;;;;;;;6.50;2.97;;;;;;;;;;5070021;28;20063;-79
2023/05/03 14:45:21;;;;;;;6.32;3.00;;;;;;;;;;5077963;28;20052;-79